Louisville, Kentucky
Current Conditions -  °F | °C
As of 5:56 PM on Sunday 28 Dec 2014 (Local Time) from KSDF Reporting Station
Overcast Overcast  
Wind Chill: 30°   Ceiling: 1900
Heat Index: 36°   Visibility: 10mi
Dew Point: 30°   Wind: 7mph
Humidity: 79%   Direction: 30°NNE
Pressure: 30.19"   Gusts: NA
Location:  38.25°N, 85.77°W
Report Text: KSDF 282256Z 03006KT 10SM OVC019 02/M01 A3019 RMK AO2 SLP226 T00221011
Loading
Personal Weather Stations






























Interactive Weather Map New forecast layout! Learn more

10-Day Weather Forecast

Advertisements
Track Severe Weather on mobile